createdAt,value
2018-07-04T00:00:53.765Z,18.80
2018-07-04T00:03:33.305Z,18.80
2018-07-04T00:06:12.821Z,18.80
2018-07-04T00:08:52.461Z,18.70
2018-07-04T00:11:31.983Z,18.80
2018-07-04T00:14:11.606Z,18.80
2018-07-04T00:16:51.139Z,18.90
2018-07-04T00:19:30.733Z,19.10
2018-07-04T00:22:10.267Z,19.20
2018-07-04T00:24:49.744Z,19.20
2018-07-04T00:27:29.312Z,19.30
2018-07-04T00:30:08.807Z,19.30
2018-07-04T00:32:48.601Z,19.20
2018-07-04T00:35:28.267Z,19.00
2018-07-04T00:38:07.833Z,18.90
2018-07-04T00:40:47.363Z,18.80
2018-07-04T00:43:26.913Z,18.60
2018-07-04T00:46:06.503Z,18.50
2018-07-04T00:48:45.974Z,18.40
2018-07-04T00:51:25.435Z,18.40
2018-07-04T00:54:05.040Z,18.40
2018-07-04T00:56:44.626Z,18.20
2018-07-04T00:59:24.155Z,18.10
2018-07-04T01:02:03.782Z,18.10
2018-07-04T01:04:43.380Z,18.00
2018-07-04T01:07:23.118Z,17.90
2018-07-04T01:10:02.697Z,17.90
2018-07-04T01:12:42.277Z,17.80
2018-07-04T01:15:21.813Z,17.90
2018-07-04T01:18:01.315Z,17.90
2018-07-04T01:20:46.274Z,18.00
2018-07-04T01:23:25.864Z,17.90
2018-07-04T01:26:05.541Z,17.80
2018-07-04T01:28:48.114Z,17.70
2018-07-04T01:31:27.609Z,17.60
2018-07-04T01:34:07.430Z,17.50
2018-07-04T01:36:47.572Z,17.50
2018-07-04T01:39:27.172Z,17.40
2018-07-04T01:42:06.603Z,17.30
2018-07-04T01:44:46.061Z,17.10
2018-07-04T01:47:25.716Z,17.00
2018-07-04T01:50:05.430Z,16.80
2018-07-04T01:52:44.969Z,16.80
2018-07-04T01:55:24.462Z,16.80
2018-07-04T01:58:03.993Z,16.70
2018-07-04T02:00:43.594Z,16.60
2018-07-04T02:03:23.143Z,16.60
2018-07-04T02:06:02.725Z,16.50
2018-07-04T02:08:42.273Z,16.50
2018-07-04T02:11:21.864Z,16.40
2018-07-04T02:14:01.301Z,16.30
2018-07-04T02:16:40.893Z,16.30
2018-07-04T02:19:20.352Z,16.20
2018-07-04T02:22:00.049Z,16.10
2018-07-04T02:24:39.621Z,16.10
2018-07-04T02:27:19.225Z,16.00
2018-07-04T02:29:58.824Z,16.00
2018-07-04T02:32:38.411Z,15.90
2018-07-04T02:35:17.954Z,15.90
2018-07-04T02:37:57.520Z,15.90
2018-07-04T02:40:37.081Z,15.90
2018-07-04T02:43:16.657Z,15.80
2018-07-04T02:45:56.208Z,15.80
2018-07-04T02:48:35.773Z,15.80
2018-07-04T02:51:15.365Z,15.80
2018-07-04T02:53:54.978Z,15.80
2018-07-04T02:56:34.647Z,15.70
2018-07-04T02:59:14.114Z,15.70
2018-07-04T03:01:54.726Z,15.70
2018-07-04T03:04:34.367Z,15.80
2018-07-04T03:07:14.215Z,15.80
2018-07-04T03:09:53.768Z,16.10
2018-07-04T03:12:33.367Z,16.30
2018-07-04T03:15:12.849Z,16.70
2018-07-04T03:17:52.424Z,16.90
2018-07-04T03:20:32.033Z,17.00
2018-07-04T03:23:11.537Z,17.00
2018-07-04T03:25:51.231Z,16.80
2018-07-04T03:28:30.792Z,16.70
2018-07-04T03:31:10.397Z,16.60
2018-07-04T03:33:49.986Z,16.70
2018-07-04T03:36:29.541Z,16.70
2018-07-04T03:39:09.159Z,16.60
2018-07-04T03:41:48.722Z,16.60
2018-07-04T03:44:28.292Z,16.60
2018-07-04T03:47:07.850Z,16.70
2018-07-04T03:49:47.439Z,16.80
2018-07-04T03:52:26.918Z,16.70
2018-07-04T03:55:06.460Z,16.80
2018-07-04T03:57:46.036Z,16.70
2018-07-04T04:00:25.550Z,16.70
2018-07-04T04:03:05.120Z,16.80
2018-07-04T04:05:44.716Z,16.80
2018-07-04T04:08:24.300Z,16.90
2018-07-04T04:11:03.932Z,17.00
2018-07-04T04:13:43.399Z,17.00
2018-07-04T04:16:22.939Z,17.00
2018-07-04T04:19:02.544Z,17.20
2018-07-04T04:21:42.135Z,17.20
2018-07-04T04:24:21.765Z,17.30
2018-07-04T04:27:01.498Z,17.30
2018-07-04T04:29:41.202Z,17.30
2018-07-04T04:32:20.749Z,17.40
2018-07-04T04:35:00.429Z,17.50
2018-07-04T04:37:39.967Z,17.60
2018-07-04T04:40:19.533Z,17.70
2018-07-04T04:42:58.991Z,17.80
2018-07-04T04:45:38.476Z,18.00
2018-07-04T04:48:17.940Z,18.20
2018-07-04T04:50:57.503Z,18.30
2018-07-04T04:53:36.982Z,18.30
2018-07-04T04:56:16.592Z,18.40
2018-07-04T04:58:56.094Z,18.60
2018-07-04T05:01:35.644Z,18.70
2018-07-04T05:04:15.246Z,18.90
2018-07-04T05:06:54.709Z,19.20
2018-07-04T05:09:34.287Z,19.30
2018-07-04T05:12:13.958Z,19.30
2018-07-04T05:14:53.593Z,19.50
2018-07-04T05:17:33.156Z,19.60
2018-07-04T05:20:12.834Z,19.70
2018-07-04T05:22:52.404Z,19.80
2018-07-04T05:25:31.988Z,19.70
2018-07-04T05:28:11.611Z,19.90
2018-07-04T05:30:51.037Z,19.90
2018-07-04T05:33:30.756Z,19.90
2018-07-04T05:36:10.311Z,19.80
2018-07-04T05:38:49.889Z,19.90
2018-07-04T05:41:29.509Z,19.80
2018-07-04T05:44:09.020Z,19.90
2018-07-04T05:46:48.563Z,19.90
2018-07-04T05:49:28.294Z,20.00
2018-07-04T05:52:08.053Z,19.90
2018-07-04T05:54:47.686Z,19.90
2018-07-04T05:57:27.140Z,19.90
2018-07-04T06:00:06.730Z,20.00
2018-07-04T06:02:46.259Z,20.10
2018-07-04T06:05:25.846Z,20.30
2018-07-04T06:08:05.508Z,20.40
2018-07-04T06:10:45.162Z,20.60
2018-07-04T06:13:24.833Z,20.50
2018-07-04T06:16:04.459Z,20.60
2018-07-04T06:18:44.105Z,20.40
2018-07-04T06:21:23.591Z,20.20
2018-07-04T06:24:03.134Z,20.30
2018-07-04T06:26:42.743Z,20.40
2018-07-04T06:29:22.365Z,20.40
2018-07-04T06:32:01.981Z,20.40
2018-07-04T06:34:41.655Z,20.60
2018-07-04T06:37:21.226Z,20.90
2018-07-04T06:39:48.575Z,21.00
2018-07-04T06:42:15.910Z,21.10
2018-07-04T06:44:43.255Z,21.10
2018-07-04T06:47:10.602Z,21.20
2018-07-04T06:49:37.948Z,21.50
2018-07-04T06:52:05.303Z,21.50
2018-07-04T06:54:32.709Z,21.70
2018-07-04T06:57:00.040Z,21.90
2018-07-04T06:59:27.403Z,22.20
2018-07-04T07:02:08.388Z,22.70
2018-07-04T07:04:48.820Z,23.10
2018-07-04T07:07:28.292Z,23.70
2018-07-04T07:10:07.958Z,25.00
2018-07-04T07:12:47.748Z,26.20
2018-07-04T07:15:27.530Z,26.90
2018-07-04T07:18:06.975Z,26.80
2018-07-04T07:20:46.556Z,27.00
2018-07-04T07:23:26.036Z,26.80
2018-07-04T07:26:05.587Z,27.70
2018-07-04T07:28:45.373Z,27.60
2018-07-04T07:31:25.420Z,27.50
2018-07-04T07:34:05.802Z,27.30
2018-07-04T07:36:45.670Z,27.60
2018-07-04T07:39:25.439Z,27.90
2018-07-04T07:42:05.740Z,27.60
2018-07-04T07:44:45.791Z,27.90
2018-07-04T07:47:25.397Z,27.40
2018-07-04T07:50:04.990Z,28.00
2018-07-04T07:52:44.589Z,28.20
2018-07-04T07:55:24.157Z,28.30
2018-07-04T07:58:03.746Z,28.80
2018-07-04T08:00:43.326Z,28.60
2018-07-04T08:03:23.082Z,27.90
2018-07-04T08:06:02.719Z,27.80
2018-07-04T08:08:42.197Z,27.50
2018-07-04T08:11:21.669Z,27.10
2018-07-04T08:14:01.226Z,27.10
2018-07-04T08:16:40.864Z,26.70
2018-07-04T08:19:20.455Z,26.90
2018-07-04T08:22:00.095Z,27.10
2018-07-04T08:24:39.696Z,27.10
2018-07-04T08:27:19.325Z,27.30
2018-07-04T08:29:58.884Z,26.90
2018-07-04T08:32:38.462Z,27.10
2018-07-04T08:35:18.066Z,27.40
2018-07-04T08:37:57.606Z,27.80
2018-07-04T08:40:37.150Z,27.70
2018-07-04T08:43:16.611Z,27.60
2018-07-04T08:45:56.315Z,28.10
2018-07-04T08:48:36.069Z,28.50
2018-07-04T08:51:15.642Z,28.80
2018-07-04T08:53:55.189Z,28.60
2018-07-04T08:56:34.778Z,29.10
2018-07-04T08:59:14.351Z,29.50
2018-07-04T09:01:53.969Z,29.30
2018-07-04T09:04:33.691Z,29.30
2018-07-04T09:07:13.383Z,29.30
2018-07-04T09:09:53.088Z,29.60
2018-07-04T09:12:32.720Z,29.40
2018-07-04T09:15:12.288Z,29.30
2018-07-04T09:17:51.892Z,29.60
2018-07-04T09:20:31.494Z,30.30
2018-07-04T09:23:11.185Z,30.20
2018-07-04T09:25:50.740Z,30.20
2018-07-04T09:28:30.373Z,30.90
2018-07-04T09:31:09.852Z,30.80
2018-07-04T09:33:49.472Z,31.20
2018-07-04T09:36:29.173Z,30.90
2018-07-04T09:39:08.741Z,30.70
2018-07-04T09:41:48.336Z,31.20
2018-07-04T09:44:27.960Z,31.00
2018-07-04T09:47:07.659Z,31.00
2018-07-04T09:49:47.429Z,32.10
2018-07-04T09:52:27.106Z,32.00
2018-07-04T09:55:06.823Z,32.00
2018-07-04T09:57:46.441Z,31.50
2018-07-04T10:00:28.446Z,32.20
2018-07-04T10:03:08.705Z,32.50
2018-07-04T10:05:48.327Z,32.20
2018-07-04T10:08:28.793Z,32.80
2018-07-04T10:11:08.723Z,33.20
2018-07-04T10:13:48.431Z,34.20
2018-07-04T10:16:27.993Z,34.20
2018-07-04T10:19:07.440Z,33.90
2018-07-04T10:21:47.001Z,33.30
2018-07-04T10:24:26.583Z,32.90
2018-07-04T10:27:06.359Z,33.70
2018-07-04T10:29:45.912Z,34.50
2018-07-04T10:32:25.507Z,35.90
2018-07-04T10:35:05.049Z,36.50
2018-07-04T10:37:44.581Z,35.10
2018-07-04T10:40:24.263Z,34.80
2018-07-04T10:43:03.768Z,34.80
2018-07-04T10:45:43.455Z,34.80
2018-07-04T10:48:23.008Z,34.40
2018-07-04T10:51:02.776Z,34.00
2018-07-04T10:53:42.612Z,34.10
2018-07-04T10:56:22.373Z,34.40
2018-07-04T10:59:01.997Z,33.70
2018-07-04T11:01:41.675Z,33.70
2018-07-04T11:04:21.382Z,33.40
2018-07-04T11:07:00.998Z,33.50
2018-07-04T11:09:40.715Z,32.90
2018-07-04T11:12:20.236Z,33.00
2018-07-04T11:14:59.824Z,33.00
2018-07-04T11:17:39.403Z,33.30
2018-07-04T11:20:18.929Z,33.60
2018-07-04T11:22:58.499Z,35.00
2018-07-04T11:25:38.092Z,36.20
2018-07-04T11:28:17.724Z,36.60
2018-07-04T11:30:57.293Z,35.30
2018-07-04T11:33:36.828Z,35.10
2018-07-04T11:36:16.436Z,35.20
2018-07-04T11:38:56.089Z,35.50
2018-07-04T11:41:35.730Z,36.70
2018-07-04T11:44:15.178Z,36.20
2018-07-04T11:46:42.694Z,35.00
2018-07-04T11:49:10.065Z,36.10
2018-07-04T11:51:37.413Z,37.00
2018-07-04T11:54:04.799Z,37.30
2018-07-04T11:56:32.252Z,37.10
2018-07-04T11:58:59.572Z,37.90
2018-07-04T12:01:26.988Z,38.50
2018-07-04T12:04:06.565Z,37.50
2018-07-04T12:06:46.186Z,36.50
2018-07-04T12:09:13.564Z,36.90
2018-07-04T12:11:40.953Z,37.70
2018-07-04T12:14:08.326Z,35.90
2018-07-04T12:16:35.670Z,36.70
2018-07-04T12:19:03.016Z,36.00
2018-07-04T12:21:30.391Z,34.50
2018-07-04T12:23:57.745Z,34.60
2018-07-04T12:26:25.083Z,35.60
2018-07-04T12:28:52.454Z,35.90
2018-07-04T12:31:19.818Z,36.00
2018-07-04T12:33:47.167Z,35.20
2018-07-04T12:36:14.535Z,34.20
2018-07-04T12:38:41.893Z,33.30
2018-07-04T12:41:09.237Z,33.00
2018-07-04T12:43:36.668Z,32.00
2018-07-04T12:46:03.984Z,31.60
2018-07-04T12:48:31.358Z,31.50
2018-07-04T12:50:58.722Z,31.30
2018-07-04T12:53:26.098Z,30.60
2018-07-04T12:56:05.684Z,30.30
2018-07-04T12:58:45.268Z,29.80
2018-07-04T13:01:25.035Z,29.60
2018-07-04T13:04:04.756Z,29.40
2018-07-04T13:06:44.380Z,29.60
2018-07-04T13:09:23.988Z,29.50
2018-07-04T13:12:04.146Z,29.50
2018-07-04T13:14:44.291Z,29.60
2018-07-04T13:17:24.081Z,29.30
2018-07-04T13:20:03.687Z,29.00
2018-07-04T13:22:43.260Z,29.20
2018-07-04T13:25:22.763Z,29.30
2018-07-04T13:28:02.341Z,29.50
2018-07-04T13:30:42.014Z,29.90
2018-07-04T13:33:21.616Z,30.10
2018-07-04T13:36:01.333Z,30.50
2018-07-04T13:38:40.980Z,31.10
2018-07-04T13:41:20.651Z,31.50
2018-07-04T13:44:00.429Z,31.60
2018-07-04T13:46:40.148Z,32.10
2018-07-04T13:49:19.837Z,32.00
2018-07-04T13:51:59.394Z,32.50
2018-07-04T13:54:38.959Z,32.60
2018-07-04T13:57:18.546Z,32.30
2018-07-04T13:59:58.185Z,32.10
2018-07-04T14:02:37.744Z,32.70
2018-07-04T14:05:17.294Z,32.80
2018-07-04T14:07:58.136Z,33.20
2018-07-04T14:10:37.767Z,33.20
2018-07-04T14:13:17.305Z,32.70
2018-07-04T14:15:56.893Z,32.80
2018-07-04T14:18:36.352Z,32.90
2018-07-04T14:21:15.945Z,33.10
2018-07-04T14:23:56.011Z,33.40
2018-07-04T14:26:35.753Z,34.10
2018-07-04T14:29:15.507Z,34.10
2018-07-04T14:31:55.088Z,34.00
2018-07-04T14:34:34.671Z,34.10
2018-07-04T14:37:14.281Z,33.90
2018-07-04T14:39:53.849Z,33.30
2018-07-04T14:42:33.499Z,33.50
2018-07-04T14:45:13.119Z,33.70
2018-07-04T14:47:52.821Z,33.90
2018-07-04T14:50:32.447Z,32.80
2018-07-04T14:53:12.290Z,33.00
2018-07-04T14:55:52.001Z,33.90
2018-07-04T14:58:31.541Z,34.00
2018-07-04T15:01:10.992Z,34.10
2018-07-04T15:03:50.569Z,34.40
2018-07-04T15:06:30.064Z,34.80
2018-07-04T15:09:09.630Z,35.60
2018-07-04T15:11:49.189Z,36.10
2018-07-04T15:14:28.919Z,35.90
2018-07-04T15:17:08.452Z,34.30
2018-07-04T15:19:48.085Z,34.00
2018-07-04T15:22:27.768Z,33.50
2018-07-04T15:25:07.312Z,33.70
2018-07-04T15:27:46.901Z,32.80
2018-07-04T15:30:26.489Z,31.20
2018-07-04T15:33:06.059Z,30.70
2018-07-04T15:35:45.607Z,30.50
2018-07-04T15:38:25.192Z,29.70
2018-07-04T15:41:04.704Z,29.80
2018-07-04T15:43:44.136Z,30.10
2018-07-04T15:46:23.724Z,30.50
2018-07-04T15:49:03.434Z,31.10
2018-07-04T15:51:43.061Z,31.80
2018-07-04T15:54:22.499Z,31.80
2018-07-04T15:57:02.073Z,32.00
2018-07-04T15:59:41.543Z,32.40
2018-07-04T16:02:21.075Z,34.10
2018-07-04T16:05:00.659Z,34.20
2018-07-04T16:07:40.350Z,34.00
2018-07-04T16:10:19.872Z,33.70
2018-07-04T16:12:59.348Z,33.10
2018-07-04T16:15:39.039Z,33.80
2018-07-04T16:18:18.609Z,34.70
2018-07-04T16:20:58.301Z,34.80
2018-07-04T16:23:37.870Z,34.10
2018-07-04T16:26:17.436Z,33.70
2018-07-04T16:28:56.931Z,34.20
2018-07-04T16:31:36.497Z,34.70
2018-07-04T16:34:16.303Z,35.30
2018-07-04T16:36:55.961Z,35.40
2018-07-04T16:39:35.537Z,34.90
2018-07-04T16:42:15.119Z,34.00
2018-07-04T16:44:54.718Z,33.80
2018-07-04T16:47:34.264Z,32.90
2018-07-04T16:50:13.738Z,31.40
2018-07-04T16:52:53.267Z,29.90
2018-07-04T16:55:32.856Z,29.30
2018-07-04T16:58:12.561Z,28.80
2018-07-04T17:00:52.118Z,28.70
2018-07-04T17:03:31.669Z,28.60
2018-07-04T17:06:11.737Z,28.30
2018-07-04T17:08:51.524Z,28.30
2018-07-04T17:11:31.256Z,28.40
2018-07-04T17:14:10.989Z,28.40
2018-07-04T17:16:50.497Z,28.30
2018-07-04T17:19:30.090Z,28.40
2018-07-04T17:22:09.655Z,28.40
2018-07-04T17:24:49.139Z,28.30
2018-07-04T17:27:28.762Z,28.20
2018-07-04T17:30:08.258Z,28.40
2018-07-04T17:32:47.735Z,28.60
2018-07-04T17:35:27.300Z,28.60
2018-07-04T17:38:06.905Z,28.60
2018-07-04T17:40:46.551Z,28.60
2018-07-04T17:43:26.115Z,28.40
2018-07-04T17:46:05.603Z,28.20
2018-07-04T17:48:45.079Z,28.20
2018-07-04T17:51:24.540Z,28.30
2018-07-04T17:54:04.102Z,28.30
2018-07-04T17:56:43.676Z,28.20
2018-07-04T17:59:23.414Z,28.00
2018-07-04T18:02:02.909Z,27.80
2018-07-04T18:04:42.476Z,27.90
2018-07-04T18:07:22.191Z,27.90
2018-07-04T18:10:02.645Z,27.80
2018-07-04T18:12:42.125Z,27.60
2018-07-04T18:15:21.712Z,27.60
2018-07-04T18:18:01.346Z,27.50
2018-07-04T18:20:40.903Z,27.30
2018-07-04T18:23:20.506Z,27.40
2018-07-04T18:26:00.072Z,27.20
2018-07-04T18:28:39.628Z,27.20
2018-07-04T18:31:19.213Z,27.00
2018-07-04T18:33:58.764Z,27.00
2018-07-04T18:36:38.360Z,26.80
2018-07-04T18:39:17.820Z,26.70
2018-07-04T18:41:57.338Z,26.70
2018-07-04T18:44:36.813Z,26.60
2018-07-04T18:47:16.418Z,26.50
2018-07-04T18:49:55.899Z,26.50
2018-07-04T18:52:35.580Z,26.30
2018-07-04T18:55:15.231Z,26.20
2018-07-04T18:57:54.832Z,26.10
2018-07-04T19:00:34.383Z,26.10
2018-07-04T19:03:13.889Z,25.90
2018-07-04T19:05:53.634Z,25.90
2018-07-04T19:08:33.102Z,25.80
2018-07-04T19:11:12.637Z,25.80
2018-07-04T19:13:52.287Z,25.60
2018-07-04T19:16:32.029Z,25.60
2018-07-04T19:19:11.689Z,25.40
2018-07-04T19:21:51.379Z,25.40
2018-07-04T19:24:31.087Z,25.30
2018-07-04T19:27:10.685Z,25.20
2018-07-04T19:29:50.179Z,25.10
2018-07-04T19:32:29.849Z,25.00
2018-07-04T19:35:09.426Z,25.00
2018-07-04T19:37:48.900Z,24.90
2018-07-04T19:40:28.460Z,24.90
2018-07-04T19:43:07.970Z,24.70
2018-07-04T19:45:47.678Z,24.70
2018-07-04T19:48:27.314Z,24.50
2018-07-04T19:51:06.850Z,24.30
2018-07-04T19:53:46.419Z,24.10
2018-07-04T19:56:26.033Z,24.00
2018-07-04T19:59:05.616Z,23.90
2018-07-04T20:01:45.177Z,23.70
2018-07-04T20:04:24.679Z,23.60
2018-07-04T20:07:04.339Z,23.60
2018-07-04T20:09:43.910Z,23.50
2018-07-04T20:12:23.450Z,23.50
2018-07-04T20:15:02.951Z,23.50
2018-07-04T20:17:42.641Z,23.40
2018-07-04T20:20:22.243Z,23.20
2018-07-04T20:23:01.961Z,23.10
2018-07-04T20:25:41.672Z,22.80
2018-07-04T20:28:21.214Z,22.70
2018-07-04T20:31:00.939Z,22.60
2018-07-04T20:33:40.609Z,22.60
2018-07-04T20:36:20.114Z,22.60
2018-07-04T20:38:59.719Z,22.60
2018-07-04T20:41:39.284Z,22.50
2018-07-04T20:44:18.866Z,22.50
2018-07-04T20:46:58.436Z,22.40
2018-07-04T20:49:38.140Z,22.40
2018-07-04T20:52:17.795Z,22.40
2018-07-04T20:54:57.267Z,22.50
2018-07-04T20:57:36.858Z,22.60
2018-07-04T21:00:16.444Z,22.70
2018-07-04T21:02:56.080Z,22.80
2018-07-04T21:05:35.659Z,23.00
2018-07-04T21:08:15.386Z,23.10
2018-07-04T21:10:55.068Z,23.10
2018-07-04T21:13:34.601Z,23.10
2018-07-04T21:16:14.197Z,23.10
2018-07-04T21:18:53.775Z,23.00
2018-07-04T21:21:33.495Z,22.80
2018-07-04T21:24:13.079Z,22.80
2018-07-04T21:26:52.732Z,22.70
2018-07-04T21:29:32.397Z,22.70
2018-07-04T21:32:12.242Z,22.80
2018-07-04T21:34:51.922Z,22.90
2018-07-04T21:37:31.589Z,23.00
2018-07-04T21:40:11.067Z,23.10
2018-07-04T21:42:50.643Z,23.20
2018-07-04T21:45:30.496Z,23.30
2018-07-04T21:48:10.094Z,23.40
2018-07-04T21:50:49.698Z,23.40
2018-07-04T21:53:30.267Z,23.30
2018-07-04T21:56:09.817Z,23.30
2018-07-04T21:58:49.331Z,23.30
2018-07-04T22:01:28.933Z,23.20
2018-07-04T22:04:08.781Z,23.00
2018-07-04T22:06:48.165Z,22.70
2018-07-04T22:09:27.762Z,22.40
2018-07-04T22:12:07.307Z,22.20
2018-07-04T22:14:46.808Z,22.10
2018-07-04T22:17:26.475Z,21.90
2018-07-04T22:20:06.152Z,21.80
2018-07-04T22:22:46.015Z,21.80
2018-07-04T22:25:25.683Z,21.70
2018-07-04T22:28:05.350Z,21.80
2018-07-04T22:30:44.943Z,21.80
2018-07-04T22:33:25.099Z,21.80
2018-07-04T22:36:04.926Z,21.60
2018-07-04T22:38:44.539Z,21.00
2018-07-04T22:41:24.005Z,20.20
2018-07-04T22:44:04.568Z,19.80
2018-07-04T22:46:44.074Z,19.50
2018-07-04T22:49:23.613Z,19.40
2018-07-04T22:52:03.209Z,19.40
2018-07-04T22:54:43.163Z,19.40
2018-07-04T22:57:22.756Z,19.50
2018-07-04T23:00:02.377Z,19.40
2018-07-04T23:02:42.183Z,19.40
2018-07-04T23:05:21.781Z,19.40
2018-07-04T23:08:01.355Z,19.30
2018-07-04T23:10:40.844Z,19.40
2018-07-04T23:13:20.403Z,19.50
2018-07-04T23:16:00.094Z,19.40
2018-07-04T23:18:39.390Z,19.40
2018-07-04T23:21:18.923Z,19.40
2018-07-04T23:23:58.636Z,19.50
2018-07-04T23:26:38.245Z,19.50
2018-07-04T23:29:17.780Z,19.50
2018-07-04T23:31:57.326Z,19.60
2018-07-04T23:34:36.982Z,19.70
2018-07-04T23:37:16.575Z,19.60
2018-07-04T23:39:56.054Z,19.60
2018-07-04T23:42:35.584Z,19.50
2018-07-04T23:45:15.133Z,19.50
2018-07-04T23:47:54.555Z,19.50
2018-07-04T23:50:34.141Z,19.40
2018-07-04T23:53:13.613Z,19.30
2018-07-04T23:55:53.290Z,19.20
2018-07-04T23:58:32.844Z,19.30
